sensor_id;sensor_type;location;lat;lon;timestamp;pressure;altitude;pressure_sealevel;temperature;humidity
72558;BME280;60583;50.094;8.748;2023-08-24T00:00:45;100579.41;;;20.99;72.22
72558;BME280;60583;50.094;8.748;2023-08-24T00:03:11;100576.06;;;20.92;72.33
72558;BME280;60583;50.094;8.748;2023-08-24T00:05:36;100552.75;;;20.86;72.20
72558;BME280;60583;50.094;8.748;2023-08-24T00:08:06;100588.28;;;20.94;72.41
72558;BME280;60583;50.094;8.748;2023-08-24T00:10:33;100576.91;;;20.92;72.93
72558;BME280;60583;50.094;8.748;2023-08-24T00:12:59;100588.47;;;20.78;73.49
72558;BME280;60583;50.094;8.748;2023-08-24T00:15:25;100578.22;;;20.48;74.98
72558;BME280;60583;50.094;8.748;2023-08-24T00:17:50;100587.69;;;20.19;75.85
72558;BME280;60583;50.094;8.748;2023-08-24T00:20:15;100579.03;;;20.22;75.96
72558;BME280;60583;50.094;8.748;2023-08-24T00:22:41;100553.28;;;20.19;75.14
72558;BME280;60583;50.094;8.748;2023-08-24T00:25:07;100569.72;;;20.40;75.77
72558;BME280;60583;50.094;8.748;2023-08-24T00:27:34;100543.34;;;20.25;75.76
72558;BME280;60583;50.094;8.748;2023-08-24T00:30:02;100577.94;;;20.50;76.15
72558;BME280;60583;50.094;8.748;2023-08-24T00:32:28;100574.38;;;20.39;76.36
72558;BME280;60583;50.094;8.748;2023-08-24T00:34:55;100576.84;;;20.46;76.67
72558;BME280;60583;50.094;8.748;2023-08-24T00:37:21;100578.53;;;20.52;76.15
72558;BME280;60583;50.094;8.748;2023-08-24T00:39:46;100585.06;;;20.56;76.55
72558;BME280;60583;50.094;8.748;2023-08-24T00:42:11;100569.03;;;20.49;76.56
72558;BME280;60583;50.094;8.748;2023-08-24T00:44:40;100578.28;;;20.58;76.94
72558;BME280;60583;50.094;8.748;2023-08-24T00:47:06;100569.25;;;20.48;77.36
72558;BME280;60583;50.094;8.748;2023-08-24T00:49:32;100554.50;;;20.28;77.83
72558;BME280;60583;50.094;8.748;2023-08-24T00:51:58;100548.00;;;20.03;78.45
72558;BME280;60583;50.094;8.748;2023-08-24T00:54:23;100536.38;;;20.07;78.19
72558;BME280;60583;50.094;8.748;2023-08-24T00:56:49;100567.91;;;20.18;78.34
72558;BME280;60583;50.094;8.748;2023-08-24T00:59:14;100558.59;;;20.09;78.66
72558;BME280;60583;50.094;8.748;2023-08-24T01:01:41;100580.81;;;20.06;79.02
72558;BME280;60583;50.094;8.748;2023-08-24T01:04:08;100583.91;;;19.93;79.22
72558;BME280;60583;50.094;8.748;2023-08-24T01:06:36;100595.06;;;20.02;79.21
72558;BME280;60583;50.094;8.748;2023-08-24T01:09:02;100589.47;;;20.08;78.72
72558;BME280;60583;50.094;8.748;2023-08-24T01:14:34;100598.75;;;20.17;78.94
72558;BME280;60583;50.094;8.748;2023-08-24T01:17:04;100600.31;;;20.08;78.85
72558;BME280;60583;50.094;8.748;2023-08-24T01:19:42;100620.44;;;20.17;78.63
72558;BME280;60583;50.094;8.748;2023-08-24T01:22:20;100596.50;;;20.09;78.98
72558;BME280;60583;50.094;8.748;2023-08-24T01:27:37;100601.22;;;20.19;78.40
72558;BME280;60583;50.094;8.748;2023-08-24T01:30:06;100611.25;;;20.18;78.28
72558;BME280;60583;50.094;8.748;2023-08-24T01:32:33;100608.44;;;20.08;78.31
72558;BME280;60583;50.094;8.748;2023-08-24T01:35:01;100603.19;;;20.02;78.77
72558;BME280;60583;50.094;8.748;2023-08-24T01:37:27;100611.78;;;20.20;78.25
72558;BME280;60583;50.094;8.748;2023-08-24T01:40:04;100615.31;;;20.21;78.72
72558;BME280;60583;50.094;8.748;2023-08-24T01:42:35;100600.75;;;20.00;78.79
72558;BME280;60583;50.094;8.748;2023-08-24T01:45:04;100621.34;;;20.01;78.96
72558;BME280;60583;50.094;8.748;2023-08-24T01:47:33;100593.47;;;19.79;79.42
72558;BME280;60583;50.094;8.748;2023-08-24T01:49:59;100591.91;;;19.83;79.48
72558;BME280;60583;50.094;8.748;2023-08-24T01:52:25;100595.19;;;19.85;79.04
72558;BME280;60583;50.094;8.748;2023-08-24T01:54:52;100599.00;;;19.89;79.05
72558;BME280;60583;50.094;8.748;2023-08-24T01:57:17;100594.56;;;19.78;78.80
72558;BME280;60583;50.094;8.748;2023-08-24T01:59:43;100610.38;;;19.64;79.82
72558;BME280;60583;50.094;8.748;2023-08-24T02:02:08;100604.78;;;19.71;79.81
72558;BME280;60583;50.094;8.748;2023-08-24T02:04:33;100571.09;;;19.62;79.62
72558;BME280;60583;50.094;8.748;2023-08-24T02:07:00;100588.91;;;19.58;79.73
72558;BME280;60583;50.094;8.748;2023-08-24T02:09:25;100586.06;;;19.69;79.94
72558;BME280;60583;50.094;8.748;2023-08-24T02:11:50;100579.94;;;19.79;79.59
72558;BME280;60583;50.094;8.748;2023-08-24T02:14:16;100565.50;;;19.68;79.63
72558;BME280;60583;50.094;8.748;2023-08-24T02:16:41;100572.41;;;19.81;79.70
72558;BME280;60583;50.094;8.748;2023-08-24T02:19:06;100552.22;;;19.67;79.75
72558;BME280;60583;50.094;8.748;2023-08-24T02:21:35;100578.13;;;19.85;79.59
72558;BME280;60583;50.094;8.748;2023-08-24T02:24:00;100562.66;;;19.80;79.53
72558;BME280;60583;50.094;8.748;2023-08-24T02:26:26;100575.72;;;19.88;79.19
72558;BME280;60583;50.094;8.748;2023-08-24T02:28:51;100550.13;;;19.74;79.44
72558;BME280;60583;50.094;8.748;2023-08-24T02:31:16;100549.66;;;19.82;79.53
72558;BME280;60583;50.094;8.748;2023-08-24T02:33:42;100562.25;;;19.93;79.24
72558;BME280;60583;50.094;8.748;2023-08-24T02:36:07;100560.47;;;20.04;79.17
72558;BME280;60583;50.094;8.748;2023-08-24T02:38:33;100562.09;;;20.05;78.56
72558;BME280;60583;50.094;8.748;2023-08-24T02:41:06;100556.38;;;20.01;78.36
72558;BME280;60583;50.094;8.748;2023-08-24T02:43:32;100546.72;;;19.84;79.03
72558;BME280;60583;50.094;8.748;2023-08-24T02:46:02;100566.28;;;19.91;79.20
72558;BME280;60583;50.094;8.748;2023-08-24T02:48:29;100556.34;;;19.96;79.25
72558;BME280;60583;50.094;8.748;2023-08-24T02:50:54;100553.09;;;19.99;78.98
72558;BME280;60583;50.094;8.748;2023-08-24T02:53:19;100540.94;;;20.02;78.67
72558;BME280;60583;50.094;8.748;2023-08-24T02:55:45;100549.03;;;20.02;77.52
72558;BME280;60583;50.094;8.748;2023-08-24T02:58:10;100539.50;;;19.94;78.00
72558;BME280;60583;50.094;8.748;2023-08-24T03:00:38;100541.03;;;19.85;76.47
72558;BME280;60583;50.094;8.748;2023-08-24T03:03:03;100545.44;;;19.91;76.75
72558;BME280;60583;50.094;8.748;2023-08-24T03:05:31;100542.25;;;19.99;76.12
72558;BME280;60583;50.094;8.748;2023-08-24T03:07:58;100553.09;;;19.99;75.82
72558;BME280;60583;50.094;8.748;2023-08-24T03:10:23;100538.59;;;19.84;75.59
72558;BME280;60583;50.094;8.748;2023-08-24T03:12:49;100515.94;;;19.63;75.81
72558;BME280;60583;50.094;8.748;2023-08-24T03:15:14;100529.50;;;19.68;76.23
72558;BME280;60583;50.094;8.748;2023-08-24T03:17:40;100531.44;;;19.72;76.49
72558;BME280;60583;50.094;8.748;2023-08-24T03:20:06;100519.28;;;19.75;75.77
72558;BME280;60583;50.094;8.748;2023-08-24T03:22:32;100541.31;;;19.84;75.71
72558;BME280;60583;50.094;8.748;2023-08-24T03:24:57;100533.47;;;19.87;75.50
72558;BME280;60583;50.094;8.748;2023-08-24T03:27:23;100476.16;;;19.63;75.19
72558;BME280;60583;50.094;8.748;2023-08-24T03:29:48;100518.84;;;19.83;75.92
72558;BME280;60583;50.094;8.748;2023-08-24T03:32:14;100520.63;;;19.72;75.72
72558;BME280;60583;50.094;8.748;2023-08-24T03:34:39;100518.69;;;19.68;76.14
72558;BME280;60583;50.094;8.748;2023-08-24T03:37:05;100532.88;;;19.80;75.89
72558;BME280;60583;50.094;8.748;2023-08-24T03:39:31;100501.19;;;19.54;75.85
72558;BME280;60583;50.094;8.748;2023-08-24T03:41:56;100530.63;;;19.72;75.84
72558;BME280;60583;50.094;8.748;2023-08-24T03:44:22;100496.09;;;19.57;76.34
72558;BME280;60583;50.094;8.748;2023-08-24T03:46:47;100510.63;;;19.73;75.43
72558;BME280;60583;50.094;8.748;2023-08-24T03:49:12;100507.44;;;19.81;75.47
72558;BME280;60583;50.094;8.748;2023-08-24T03:51:38;100511.63;;;19.67;76.45
72558;BME280;60583;50.094;8.748;2023-08-24T03:54:03;100505.56;;;19.55;76.19
72558;BME280;60583;50.094;8.748;2023-08-24T03:56:30;100479.59;;;19.59;75.93
72558;BME280;60583;50.094;8.748;2023-08-24T03:58:56;100485.84;;;19.59;75.91
72558;BME280;60583;50.094;8.748;2023-08-24T04:01:21;100493.25;;;19.69;75.94
72558;BME280;60583;50.094;8.748;2023-08-24T04:03:47;100491.22;;;19.81;75.59
72558;BME280;60583;50.094;8.748;2023-08-24T04:06:13;100486.75;;;19.70;75.29
72558;BME280;60583;50.094;8.748;2023-08-24T04:08:38;100487.81;;;19.69;75.35
72558;BME280;60583;50.094;8.748;2023-08-24T04:11:04;100478.50;;;19.55;76.03
72558;BME280;60583;50.094;8.748;2023-08-24T04:13:29;100467.41;;;19.56;75.61
72558;BME280;60583;50.094;8.748;2023-08-24T04:15:54;100465.56;;;19.62;75.81
72558;BME280;60583;50.094;8.748;2023-08-24T04:18:20;100478.66;;;19.70;76.33
72558;BME280;60583;50.094;8.748;2023-08-24T04:20:45;100470.47;;;19.65;76.81
72558;BME280;60583;50.094;8.748;2023-08-24T04:23:13;100472.69;;;19.68;76.56
72558;BME280;60583;50.094;8.748;2023-08-24T04:25:41;100494.56;;;19.66;76.83
72558;BME280;60583;50.094;8.748;2023-08-24T04:28:08;100479.56;;;19.54;77.46
72558;BME280;60583;50.094;8.748;2023-08-24T04:30:33;100464.09;;;19.49;77.70
72558;BME280;60583;50.094;8.748;2023-08-24T04:32:59;100436.13;;;19.65;77.16
72558;BME280;60583;50.094;8.748;2023-08-24T04:35:25;100430.59;;;19.07;77.57
72558;BME280;60583;50.094;8.748;2023-08-24T04:37:51;100446.13;;;19.17;77.87
72558;BME280;60583;50.094;8.748;2023-08-24T04:40:17;100440.47;;;19.18;77.55
72558;BME280;60583;50.094;8.748;2023-08-24T04:42:42;100465.38;;;19.20;78.63
72558;BME280;60583;50.094;8.748;2023-08-24T04:45:08;100464.06;;;19.23;78.12
72558;BME280;60583;50.094;8.748;2023-08-24T04:47:34;100461.97;;;19.30;77.88
72558;BME280;60583;50.094;8.748;2023-08-24T04:49:59;100458.69;;;19.28;77.16
72558;BME280;60583;50.094;8.748;2023-08-24T04:52:24;100429.03;;;19.11;76.42
72558;BME280;60583;50.094;8.748;2023-08-24T04:54:50;100464.66;;;19.30;76.33
72558;BME280;60583;50.094;8.748;2023-08-24T04:57:16;100449.44;;;19.24;76.83
72558;BME280;60583;50.094;8.748;2023-08-24T04:59:42;100420.72;;;19.18;77.79
72558;BME280;60583;50.094;8.748;2023-08-24T05:02:07;100424.94;;;19.08;78.49
72558;BME280;60583;50.094;8.748;2023-08-24T05:04:33;100461.41;;;19.28;78.52
72558;BME280;60583;50.094;8.748;2023-08-24T05:06:58;100482.59;;;19.36;78.20
72558;BME280;60583;50.094;8.748;2023-08-24T05:09:23;100499.59;;;19.53;77.40
72558;BME280;60583;50.094;8.748;2023-08-24T05:11:49;100500.13;;;19.55;77.45
72558;BME280;60583;50.094;8.748;2023-08-24T05:14:14;100530.91;;;19.49;77.46
72558;BME280;60583;50.094;8.748;2023-08-24T05:16:40;100553.13;;;19.51;77.35
72558;BME280;60583;50.094;8.748;2023-08-24T05:19:05;100538.91;;;19.39;76.89
72558;BME280;60583;50.094;8.748;2023-08-24T05:21:31;100575.84;;;19.50;77.01
72558;BME280;60583;50.094;8.748;2023-08-24T05:23:56;100594.78;;;19.50;77.42
72558;BME280;60583;50.094;8.748;2023-08-24T05:26:21;100588.25;;;19.46;77.53
72558;BME280;60583;50.094;8.748;2023-08-24T05:28:50;100601.75;;;19.46;77.30
72558;BME280;60583;50.094;8.748;2023-08-24T05:31:17;100629.25;;;19.59;77.25
72558;BME280;60583;50.094;8.748;2023-08-24T05:33:43;100632.22;;;19.58;77.35
72558;BME280;60583;50.094;8.748;2023-08-24T05:36:08;100638.13;;;19.55;77.33
72558;BME280;60583;50.094;8.748;2023-08-24T05:38:33;100634.22;;;19.46;77.98
72558;BME280;60583;50.094;8.748;2023-08-24T05:40:59;100630.56;;;19.57;77.96
72558;BME280;60583;50.094;8.748;2023-08-24T05:43:24;100641.28;;;19.68;77.29
72558;BME280;60583;50.094;8.748;2023-08-24T05:45:49;100638.63;;;19.73;78.17
72558;BME280;60583;50.094;8.748;2023-08-24T05:48:15;100623.00;;;19.59;79.21
72558;BME280;60583;50.094;8.748;2023-08-24T05:50:45;100632.97;;;19.75;78.67
72558;BME280;60583;50.094;8.748;2023-08-24T05:53:11;100629.75;;;19.78;78.50
72558;BME280;60583;50.094;8.748;2023-08-24T05:55:37;100592.75;;;19.62;78.99
72558;BME280;60583;50.094;8.748;2023-08-24T05:58:03;100610.38;;;19.86;78.30
72558;BME280;60583;50.094;8.748;2023-08-24T06:00:29;100623.59;;;20.09;77.90
72558;BME280;60583;50.094;8.748;2023-08-24T06:02:55;100622.59;;;20.15;76.96
72558;BME280;60583;50.094;8.748;2023-08-24T06:05:20;100604.81;;;20.24;74.71
72558;BME280;60583;50.094;8.748;2023-08-24T06:07:45;100603.53;;;20.32;75.25
72558;BME280;60583;50.094;8.748;2023-08-24T06:10:11;100597.81;;;20.28;74.72
72558;BME280;60583;50.094;8.748;2023-08-24T06:12:37;100613.41;;;20.43;73.97
72558;BME280;60583;50.094;8.748;2023-08-24T06:15:04;100606.78;;;20.29;74.80
72558;BME280;60583;50.094;8.748;2023-08-24T06:17:30;100603.34;;;20.39;75.24
72558;BME280;60583;50.094;8.748;2023-08-24T06:19:55;100623.03;;;20.61;74.83
72558;BME280;60583;50.094;8.748;2023-08-24T06:22:20;100619.25;;;20.62;74.08
72558;BME280;60583;50.094;8.748;2023-08-24T06:24:46;100631.72;;;20.63;74.63
72558;BME280;60583;50.094;8.748;2023-08-24T06:27:11;100619.34;;;20.77;72.08
72558;BME280;60583;50.094;8.748;2023-08-24T06:29:37;100597.63;;;20.72;72.80
72558;BME280;60583;50.094;8.748;2023-08-24T06:32:02;100610.75;;;20.85;73.53
72558;BME280;60583;50.094;8.748;2023-08-24T06:34:27;100594.19;;;20.81;73.27
72558;BME280;60583;50.094;8.748;2023-08-24T06:36:53;100613.22;;;20.86;72.42
72558;BME280;60583;50.094;8.748;2023-08-24T06:39:18;100598.88;;;20.91;71.78
72558;BME280;60583;50.094;8.748;2023-08-24T06:41:44;100610.25;;;20.93;71.09
72558;BME280;60583;50.094;8.748;2023-08-24T06:44:10;100594.47;;;20.85;70.52
72558;BME280;60583;50.094;8.748;2023-08-24T06:46:35;100623.31;;;20.96;70.53
72558;BME280;60583;50.094;8.748;2023-08-24T06:49:01;100583.09;;;20.88;72.41
72558;BME280;60583;50.094;8.748;2023-08-24T06:51:26;100563.69;;;21.01;72.39
72558;BME280;60583;50.094;8.748;2023-08-24T06:53:52;100520.69;;;21.30;70.72
72558;BME280;60583;50.094;8.748;2023-08-24T06:56:17;100466.13;;;21.11;71.20
72558;BME280;60583;50.094;8.748;2023-08-24T06:58:44;100459.16;;;20.78;70.95
72558;BME280;60583;50.094;8.748;2023-08-24T07:01:10;100475.44;;;20.78;71.38
72558;BME280;60583;50.094;8.748;2023-08-24T07:03:36;100507.16;;;20.83;71.23
72558;BME280;60583;50.094;8.748;2023-08-24T07:06:02;100517.72;;;20.84;70.97
72558;BME280;60583;50.094;8.748;2023-08-24T07:08:28;100521.78;;;20.82;71.45
72558;BME280;60583;50.094;8.748;2023-08-24T07:10:53;100534.31;;;20.88;71.08
72558;BME280;60583;50.094;8.748;2023-08-24T07:13:18;100535.41;;;20.92;71.83
72558;BME280;60583;50.094;8.748;2023-08-24T07:15:44;100500.13;;;20.87;71.95
72558;BME280;60583;50.094;8.748;2023-08-24T07:18:11;100526.72;;;20.90;72.61
72558;BME280;60583;50.094;8.748;2023-08-24T07:20:37;100474.31;;;20.74;72.39
72558;BME280;60583;50.094;8.748;2023-08-24T07:23:03;100493.94;;;20.91;72.71
72558;BME280;60583;50.094;8.748;2023-08-24T07:25:28;100495.84;;;20.96;72.32
72558;BME280;60583;50.094;8.748;2023-08-24T07:27:54;100505.06;;;21.00;73.05
72558;BME280;60583;50.094;8.748;2023-08-24T07:30:25;100519.03;;;21.14;72.46
72558;BME280;60583;50.094;8.748;2023-08-24T07:32:51;100492.63;;;20.99;71.89
72558;BME280;60583;50.094;8.748;2023-08-24T07:35:17;100489.75;;;21.21;71.54
72558;BME280;60583;50.094;8.748;2023-08-24T07:37:42;100479.59;;;21.01;71.41
72558;BME280;60583;50.094;8.748;2023-08-24T07:40:08;100516.06;;;21.20;70.98
72558;BME280;60583;50.094;8.748;2023-08-24T07:42:44;100461.84;;;20.73;71.24
72558;BME280;60583;50.094;8.748;2023-08-24T07:45:10;100524.34;;;20.98;70.92
72558;BME280;60583;50.094;8.748;2023-08-24T07:47:35;100510.22;;;20.91;71.57
72558;BME280;60583;50.094;8.748;2023-08-24T07:50:01;100509.09;;;20.92;71.11
72558;BME280;60583;50.094;8.748;2023-08-24T07:52:26;100497.69;;;20.85;71.42
72558;BME280;60583;50.094;8.748;2023-08-24T07:54:53;100518.41;;;21.02;71.60
72558;BME280;60583;50.094;8.748;2023-08-24T07:57:20;100489.22;;;20.77;72.47
72558;BME280;60583;50.094;8.748;2023-08-24T07:59:46;100502.66;;;20.98;72.33
72558;BME280;60583;50.094;8.748;2023-08-24T08:02:11;100503.47;;;20.99;72.55
72558;BME280;60583;50.094;8.748;2023-08-24T08:04:36;100476.13;;;21.06;72.37
72558;BME280;60583;50.094;8.748;2023-08-24T08:07:02;100463.13;;;21.13;72.58
72558;BME280;60583;50.094;8.748;2023-08-24T08:09:27;100458.28;;;21.30;71.57
72558;BME280;60583;50.094;8.748;2023-08-24T08:11:53;100436.59;;;21.35;70.31
72558;BME280;60583;50.094;8.748;2023-08-24T08:14:18;100438.56;;;21.49;70.06
72558;BME280;60583;50.094;8.748;2023-08-24T08:16:45;100401.59;;;21.33;69.89
72558;BME280;60583;50.094;8.748;2023-08-24T08:19:10;100412.47;;;21.38;70.06
72558;BME280;60583;50.094;8.748;2023-08-24T08:21:36;100430.41;;;21.44;69.83
72558;BME280;60583;50.094;8.748;2023-08-24T08:24:01;100444.97;;;21.13;70.54
72558;BME280;60583;50.094;8.748;2023-08-24T08:26:27;100479.09;;;21.04;72.43
72558;BME280;60583;50.094;8.748;2023-08-24T08:28:52;100485.03;;;21.01;72.92
72558;BME280;60583;50.094;8.748;2023-08-24T08:31:18;100439.13;;;20.84;73.11
72558;BME280;60583;50.094;8.748;2023-08-24T08:33:43;100444.69;;;21.20;72.82
72558;BME280;60583;50.094;8.748;2023-08-24T08:36:08;100420.06;;;21.26;71.81
72558;BME280;60583;50.094;8.748;2023-08-24T08:38:34;100420.59;;;21.38;71.79
72558;BME280;60583;50.094;8.748;2023-08-24T08:41:03;100441.28;;;21.65;71.44
72558;BME280;60583;50.094;8.748;2023-08-24T08:43:30;100442.09;;;21.80;71.56
72558;BME280;60583;50.094;8.748;2023-08-24T08:45:56;100415.22;;;22.24;69.67
72558;BME280;60583;50.094;8.748;2023-08-24T08:48:22;100410.28;;;22.46;67.72
72558;BME280;60583;50.094;8.748;2023-08-24T08:50:49;100431.94;;;22.81;65.90
72558;BME280;60583;50.094;8.748;2023-08-24T08:53:15;100416.84;;;23.09;65.90
72558;BME280;60583;50.094;8.748;2023-08-24T08:55:41;100414.81;;;23.35;66.16
72558;BME280;60583;50.094;8.748;2023-08-24T08:58:07;100398.25;;;23.70;63.01
72558;BME280;60583;50.094;8.748;2023-08-24T09:00:33;100412.53;;;24.20;61.85
72558;BME280;60583;50.094;8.748;2023-08-24T09:03:01;100409.13;;;24.33;62.24
72558;BME280;60583;50.094;8.748;2023-08-24T09:05:26;100408.81;;;24.39;59.65
72558;BME280;60583;50.094;8.748;2023-08-24T09:07:53;100389.59;;;24.26;61.20
72558;BME280;60583;50.094;8.748;2023-08-24T09:10:19;100406.44;;;24.56;60.12
72558;BME280;60583;50.094;8.748;2023-08-24T09:12:45;100386.81;;;24.54;59.83
72558;BME280;60583;50.094;8.748;2023-08-24T09:15:10;100388.50;;;24.50;59.59
72558;BME280;60583;50.094;8.748;2023-08-24T09:17:42;100384.13;;;24.73;59.82
72558;BME280;60583;50.094;8.748;2023-08-24T09:20:08;100365.84;;;24.97;58.62
72558;BME280;60583;50.094;8.748;2023-08-24T09:22:36;100375.19;;;25.28;57.18
72558;BME280;60583;50.094;8.748;2023-08-24T09:25:02;100354.41;;;25.32;57.95
72558;BME280;60583;50.094;8.748;2023-08-24T09:27:29;100391.47;;;25.89;57.50
72558;BME280;60583;50.094;8.748;2023-08-24T09:29:54;100371.81;;;25.87;55.62
72558;BME280;60583;50.094;8.748;2023-08-24T09:32:30;100373.88;;;26.09;55.09
72558;BME280;60583;50.094;8.748;2023-08-24T09:35:03;100371.84;;;26.01;54.40
72558;BME280;60583;50.094;8.748;2023-08-24T09:37:36;100364.44;;;26.47;54.17
72558;BME280;60583;50.094;8.748;2023-08-24T09:40:06;100379.13;;;26.65;55.46
72558;BME280;60583;50.094;8.748;2023-08-24T09:42:38;100379.00;;;26.97;52.89
72558;BME280;60583;50.094;8.748;2023-08-24T09:45:05;100344.75;;;27.22;50.70
72558;BME280;60583;50.094;8.748;2023-08-24T09:47:31;100352.50;;;27.64;51.05
72558;BME280;60583;50.094;8.748;2023-08-24T09:49:56;100346.50;;;27.84;52.13
72558;BME280;60583;50.094;8.748;2023-08-24T09:52:23;100339.41;;;28.06;50.21
72558;BME280;60583;50.094;8.748;2023-08-24T09:54:52;100331.03;;;28.11;49.52
72558;BME280;60583;50.094;8.748;2023-08-24T09:57:19;100331.25;;;28.62;49.61
72558;BME280;60583;50.094;8.748;2023-08-24T09:59:46;100313.34;;;28.82;47.68
72558;BME280;60583;50.094;8.748;2023-08-24T10:02:17;100305.47;;;29.40;47.80
72558;BME280;60583;50.094;8.748;2023-08-24T10:04:46;100300.25;;;29.56;45.89
72558;BME280;60583;50.094;8.748;2023-08-24T10:07:15;100274.19;;;29.70;45.45
72558;BME280;60583;50.094;8.748;2023-08-24T10:09:59;100289.22;;;30.19;44.25
72558;BME280;60583;50.094;8.748;2023-08-24T10:12:28;100288.69;;;30.35;44.63
72558;BME280;60583;50.094;8.748;2023-08-24T10:14:59;100302.25;;;30.69;43.40
72558;BME280;60583;50.094;8.748;2023-08-24T10:17:26;100298.03;;;31.13;42.43
72558;BME280;60583;50.094;8.748;2023-08-24T10:19:53;100273.41;;;31.28;42.07
72558;BME280;60583;50.094;8.748;2023-08-24T10:22:20;100252.19;;;31.74;42.29
72558;BME280;60583;50.094;8.748;2023-08-24T10:24:47;100255.66;;;32.55;38.62
72558;BME280;60583;50.094;8.748;2023-08-24T10:27:13;100276.53;;;32.80;39.76
72558;BME280;60583;50.094;8.748;2023-08-24T10:29:39;100256.59;;;33.27;38.63
72558;BME280;60583;50.094;8.748;2023-08-24T10:32:05;100270.06;;;33.72;38.18
72558;BME280;60583;50.094;8.748;2023-08-24T10:34:32;100250.13;;;32.55;39.04
72558;BME280;60583;50.094;8.748;2023-08-24T10:37:07;100260.84;;;32.33;40.52
72558;BME280;60583;50.094;8.748;2023-08-24T10:39:33;100238.63;;;32.41;40.29
72558;BME280;60583;50.094;8.748;2023-08-24T10:42:00;100250.13;;;32.43;40.41
72558;BME280;60583;50.094;8.748;2023-08-24T10:44:37;100247.13;;;32.48;40.12
72558;BME280;60583;50.094;8.748;2023-08-24T10:47:18;100263.03;;;32.03;40.72
72558;BME280;60583;50.094;8.748;2023-08-24T10:50:04;100267.09;;;31.73;41.55
72558;BME280;60583;50.094;8.748;2023-08-24T10:54:56;100245.16;;;30.99;43.03
72558;BME280;60583;50.094;8.748;2023-08-24T10:57:26;100239.72;;;31.23;42.02
72558;BME280;60583;50.094;8.748;2023-08-24T11:00:05;100222.81;;;31.45;41.54
72558;BME280;60583;50.094;8.748;2023-08-24T11:02:46;100235.78;;;32.01;40.58
72558;BME280;60583;50.094;8.748;2023-08-24T11:05:16;100230.59;;;32.24;40.82
72558;BME280;60583;50.094;8.748;2023-08-24T11:08:08;100233.38;;;32.24;40.38
72558;BME280;60583;50.094;8.748;2023-08-24T11:13:15;100242.09;;;32.26;39.46
72558;BME280;60583;50.094;8.748;2023-08-24T11:15:45;100237.34;;;31.33;39.57
72558;BME280;60583;50.094;8.748;2023-08-24T11:18:26;100242.94;;;30.71;40.58
72558;BME280;60583;50.094;8.748;2023-08-24T11:21:01;100223.97;;;30.70;39.25
72558;BME280;60583;50.094;8.748;2023-08-24T11:23:28;100238.84;;;30.98;39.27
72558;BME280;60583;50.094;8.748;2023-08-24T11:25:54;100221.50;;;31.30;39.57
72558;BME280;60583;50.094;8.748;2023-08-24T11:28:22;100228.50;;;31.73;38.17
72558;BME280;60583;50.094;8.748;2023-08-24T11:30:48;100233.22;;;32.45;37.37
72558;BME280;60583;50.094;8.748;2023-08-24T11:33:14;100208.03;;;33.14;34.84
72558;BME280;60583;50.094;8.748;2023-08-24T11:35:44;100208.22;;;33.64;33.12
72558;BME280;60583;50.094;8.748;2023-08-24T11:38:11;100207.84;;;33.81;32.37
72558;BME280;60583;50.094;8.748;2023-08-24T11:40:37;100204.53;;;34.07;32.20
72558;BME280;60583;50.094;8.748;2023-08-24T11:43:03;100201.38;;;34.24;32.93
72558;BME280;60583;50.094;8.748;2023-08-24T11:45:33;100208.38;;;34.72;32.06
72558;BME280;60583;50.094;8.748;2023-08-24T11:47:59;100172.50;;;34.60;31.40
72558;BME280;60583;50.094;8.748;2023-08-24T11:50:28;100178.16;;;34.48;31.60
72558;BME280;60583;50.094;8.748;2023-08-24T11:52:54;100182.75;;;34.06;32.60
72558;BME280;60583;50.094;8.748;2023-08-24T11:55:21;100182.06;;;33.77;32.91
72558;BME280;60583;50.094;8.748;2023-08-24T11:57:47;100168.97;;;33.31;34.06
72558;BME280;60583;50.094;8.748;2023-08-24T12:00:12;100159.81;;;32.99;34.80
72558;BME280;60583;50.094;8.748;2023-08-24T12:02:40;100170.66;;;32.76;34.54
72558;BME280;60583;50.094;8.748;2023-08-24T12:05:06;100170.88;;;33.27;34.11
72558;BME280;60583;50.094;8.748;2023-08-24T12:07:33;100160.34;;;33.17;34.03
72558;BME280;60583;50.094;8.748;2023-08-24T12:10:02;100151.59;;;33.15;34.70
72558;BME280;60583;50.094;8.748;2023-08-24T12:12:28;100153.38;;;32.79;34.70
72558;BME280;60583;50.094;8.748;2023-08-24T12:14:55;100137.47;;;32.09;36.70
72558;BME280;60583;50.094;8.748;2023-08-24T12:17:22;100148.50;;;32.09;36.54
72558;BME280;60583;50.094;8.748;2023-08-24T12:19:59;100112.38;;;31.41;37.83
72558;BME280;60583;50.094;8.748;2023-08-24T12:22:31;100143.72;;;31.37;38.75
72558;BME280;60583;50.094;8.748;2023-08-24T12:24:57;100133.88;;;30.91;39.07
72558;BME280;60583;50.094;8.748;2023-08-24T12:27:24;100140.34;;;31.07;39.82
72558;BME280;60583;50.094;8.748;2023-08-24T12:29:51;100151.16;;;31.12;39.47
72558;BME280;60583;50.094;8.748;2023-08-24T12:32:17;100143.22;;;30.99;39.57
72558;BME280;60583;50.094;8.748;2023-08-24T12:34:48;100115.41;;;30.91;39.05
72558;BME280;60583;50.094;8.748;2023-08-24T12:37:14;100101.00;;;30.74;39.95
72558;BME280;60583;50.094;8.748;2023-08-24T12:39:39;100102.50;;;30.51;40.47
72558;BME280;60583;50.094;8.748;2023-08-24T12:42:05;100101.56;;;30.47;40.54
72558;BME280;60583;50.094;8.748;2023-08-24T12:44:31;100095.47;;;30.41;40.59
72558;BME280;60583;50.094;8.748;2023-08-24T12:46:57;100105.59;;;30.28;41.01
72558;BME280;60583;50.094;8.748;2023-08-24T12:49:23;100108.13;;;30.33;41.16
72558;BME280;60583;50.094;8.748;2023-08-24T12:51:48;100102.28;;;30.14;42.59
72558;BME280;60583;50.094;8.748;2023-08-24T12:54:14;100094.50;;;30.16;42.40
72558;BME280;60583;50.094;8.748;2023-08-24T12:56:39;100105.69;;;30.11;40.80
72558;BME280;60583;50.094;8.748;2023-08-24T12:59:06;100129.66;;;30.31;41.21